Terminal Aerodrome Forecast
Issued by NWS

Home | Current Version | Previous Version | Text Only | Print | Product List | Glossary On
Versions: 1 2 3 4 5 6 7 8 9 10 11 12 13 14 15
000
FTUS44 KEPZ 040544
TAFTCS
TAF
KTCS 040544Z 0406/0506 29005KT P6SM SCT060 BKN150 OVC250
     FM041600 18010KT P6SM FEW060 SCT150
     FM042100 19011KT P6SM VCTS BKN070CB BKN150 OVC250=

USA.gov is the U.S. government's official web portal to all federal, state and local government web resources and services.